SASA/SLA METAR and TAF weather

Enter ICAO airport designator
Station Type Date Time Source
SASA METAR 2021/07/30 23:00 UTC NOAA

SASA 302300Z 02005KT CAVOK 10/M03 Q1021


Station Type Date Time Source
SASA Decoded METAR 2021/07/30 23:00 UTC NOAA

Salta Aerodrome, Argentina (SASA) 24-51S 065-29W 1221M
Jul 30, 2021 - 07:00 PM EDT / 2021.07.30 2300 UTC
Wind: from the NNE (020 degrees) at 6 MPH (5 KT):0
Visibility: greater than 7 mile(s):0
Temperature: 50 F (10 C)
Dew Point: 26 F (-3 C)
Relative Humidity: 39%
Pressure (altimeter): 30.15 in. Hg (1021 hPa)
ob: SASA 302300Z 02005KT CAVOK 10/M03 Q1021
cycle: 23

Station Type Date Time Source
SASA TAF 2021/07/30 18:30 UTC NOAA

TAF SASA 301700Z 3018/3118 36005KT 9999 FEW030 TX16/3118Z TN01/3111Z
BECMG 3106/3109 33005KT
BECMG 3112/3115 18005KT

Example: see airport list